Summerland, Canada
Current Conditions -  °F | °C
As of 8:30 AM on Wednesday 26 Nov 2014 (Local Time) from CYYF Reporting Station
Rain Showers Rain Showers  
Wind Chill: 26°   Ceiling: 1700
Heat Index: 34°   Visibility: 8mi
Dew Point: 34°   Wind: 9mph
Humidity: 100%   Direction: 160°SSE
Pressure: 30.15"   Gusts: NA
Location:  49.6°N, 119.68°W
Report Text: CYYF 261630Z 16008KT 120V190 8SM VCSH SCT004 BKN017 OVC039 01/01 A3015 RMK SF4SF3SC1 SLP223
Loading
Personal Weather Stations






























Interactive Weather Map New forecast layout! Learn more

10-Day Weather Forecast

Advertisements
Track Severe Weather on mobile